sensor_id;sensor_type;location;lat;lon;timestamp;pressure;altitude;pressure_sealevel;temperature;humidity
44351;BME280;62766;62.622;17.912;2023-05-02T00:00:08;100308.85;;;4.17;50.20
44351;BME280;62766;62.622;17.912;2023-05-02T00:02:36;100305.79;;;4.21;49.96
44351;BME280;62766;62.622;17.912;2023-05-02T00:05:05;100304.53;;;4.31;49.96
44351;BME280;62766;62.622;17.912;2023-05-02T00:07:34;100306.96;;;4.31;50.05
44351;BME280;62766;62.622;17.912;2023-05-02T00:10:04;100314.40;;;4.19;50.15
44351;BME280;62766;62.622;17.912;2023-05-02T00:12:32;100317.21;;;4.23;50.23
44351;BME280;62766;62.622;17.912;2023-05-02T00:15:00;100314.67;;;4.30;50.29
44351;BME280;62766;62.622;17.912;2023-05-02T00:17:29;100317.10;;;4.21;50.23
44351;BME280;62766;62.622;17.912;2023-05-02T00:19:58;100322.71;;;4.12;50.31
44351;BME280;62766;62.622;17.912;2023-05-02T00:22:27;100321.02;;;4.11;50.43
44351;BME280;62766;62.622;17.912;2023-05-02T00:24:56;100316.11;;;4.00;50.57
44351;BME280;62766;62.622;17.912;2023-05-02T00:27:24;100320.20;;;3.91;50.81
44351;BME280;62766;62.622;17.912;2023-05-02T00:29:53;100318.59;;;3.94;50.83
44351;BME280;62766;62.622;17.912;2023-05-02T00:32:21;100316.73;;;4.01;50.77
44351;BME280;62766;62.622;17.912;2023-05-02T00:34:49;100315.13;;;3.87;50.54
44351;BME280;62766;62.622;17.912;2023-05-02T00:37:18;100313.27;;;3.83;50.66
44351;BME280;62766;62.622;17.912;2023-05-02T00:39:46;100311.40;;;3.87;50.54
44351;BME280;62766;62.622;17.912;2023-05-02T00:42:15;100311.35;;;3.72;50.34
44351;BME280;62766;62.622;17.912;2023-05-02T00:44:43;100313.12;;;3.63;50.21
44351;BME280;62766;62.622;17.912;2023-05-02T00:47:13;100312.25;;;3.69;50.04
44351;BME280;62766;62.622;17.912;2023-05-02T00:49:42;100312.78;;;3.75;49.98
44351;BME280;62766;62.622;17.912;2023-05-02T00:52:10;100308.77;;;3.72;50.01
44351;BME280;62766;62.622;17.912;2023-05-02T00:54:38;100306.09;;;3.50;50.03
44351;BME280;62766;62.622;17.912;2023-05-02T00:57:08;100307.94;;;3.51;50.00
44351;BME280;62766;62.622;17.912;2023-05-02T00:59:37;100305.97;;;3.43;49.86
44351;BME280;62766;62.622;17.912;2023-05-02T01:02:15;100307.93;;;3.41;49.56
44351;BME280;62766;62.622;17.912;2023-05-02T01:04:56;100303.75;;;3.24;49.66
44351;BME280;62766;62.622;17.912;2023-05-02T01:07:48;100307.17;;;3.14;49.46
44351;BME280;62766;62.622;17.912;2023-05-02T01:10:25;100307.37;;;3.13;49.12
44351;BME280;62766;62.622;17.912;2023-05-02T01:13:01;100307.75;;;3.22;49.04
44351;BME280;62766;62.622;17.912;2023-05-02T01:15:31;100309.22;;;3.06;49.23
44351;BME280;62766;62.622;17.912;2023-05-02T01:18:01;100310.57;;;3.13;49.24
44351;BME280;62766;62.622;17.912;2023-05-02T01:20:36;100312.38;;;3.17;49.37
44351;BME280;62766;62.622;17.912;2023-05-02T01:23:12;100310.46;;;3.03;49.40
44351;BME280;62766;62.622;17.912;2023-05-02T01:25:55;100309.07;;;3.03;49.18
44351;BME280;62766;62.622;17.912;2023-05-02T01:28:33;100310.82;;;3.07;49.45
44351;BME280;62766;62.622;17.912;2023-05-02T01:31:04;100310.79;;;3.00;49.78
44351;BME280;62766;62.622;17.912;2023-05-02T01:33:34;100309.77;;;2.93;50.06
44351;BME280;62766;62.622;17.912;2023-05-02T01:36:05;100309.35;;;2.96;50.17
44351;BME280;62766;62.622;17.912;2023-05-02T01:38:34;100311.67;;;2.87;50.69
44351;BME280;62766;62.622;17.912;2023-05-02T01:41:05;100307.66;;;2.84;51.13
44351;BME280;62766;62.622;17.912;2023-05-02T01:43:36;100306.51;;;2.67;51.54
44351;BME280;62766;62.622;17.912;2023-05-02T01:46:09;100303.26;;;2.64;51.52
44351;BME280;62766;62.622;17.912;2023-05-02T01:48:40;100299.57;;;2.65;51.45
44351;BME280;62766;62.622;17.912;2023-05-02T01:51:10;100298.43;;;2.57;51.52
44351;BME280;62766;62.622;17.912;2023-05-02T01:53:39;100297.72;;;2.63;51.09
44351;BME280;62766;62.622;17.912;2023-05-02T01:56:08;100296.28;;;2.59;50.88
44351;BME280;62766;62.622;17.912;2023-05-02T01:58:37;100295.84;;;2.55;50.37
44351;BME280;62766;62.622;17.912;2023-05-02T02:01:08;100297.23;;;2.46;50.11
44351;BME280;62766;62.622;17.912;2023-05-02T02:03:38;100298.81;;;2.46;50.42
44351;BME280;62766;62.622;17.912;2023-05-02T02:06:08;100300.05;;;2.44;50.24
44351;BME280;62766;62.622;17.912;2023-05-02T02:11:10;100303.47;;;2.42;50.12
44351;BME280;62766;62.622;17.912;2023-05-02T02:13:43;100303.10;;;2.39;50.41
44351;BME280;62766;62.622;17.912;2023-05-02T02:16:20;100304.32;;;2.30;50.21
44351;BME280;62766;62.622;17.912;2023-05-02T02:18:53;100305.74;;;2.34;50.00
44351;BME280;62766;62.622;17.912;2023-05-02T02:21:24;100305.63;;;2.44;49.79
44351;BME280;62766;62.622;17.912;2023-05-02T02:23:58;100306.44;;;2.42;49.83
44351;BME280;62766;62.622;17.912;2023-05-02T02:26:30;100303.18;;;2.36;49.87
44351;BME280;62766;62.622;17.912;2023-05-02T02:28:59;100307.96;;;2.49;49.75
44351;BME280;62766;62.622;17.912;2023-05-02T02:31:30;100306.40;;;2.57;49.73
44351;BME280;62766;62.622;17.912;2023-05-02T02:33:59;100308.64;;;2.53;49.46
44351;BME280;62766;62.622;17.912;2023-05-02T02:36:32;100310.72;;;2.59;49.32
44351;BME280;62766;62.622;17.912;2023-05-02T02:39:11;100312.45;;;2.56;49.13
44351;BME280;62766;62.622;17.912;2023-05-02T02:41:52;100312.33;;;2.68;49.28
44351;BME280;62766;62.622;17.912;2023-05-02T02:44:29;100316.39;;;2.71;49.25
44351;BME280;62766;62.622;17.912;2023-05-02T02:47:08;100310.36;;;2.71;49.22
44351;BME280;62766;62.622;17.912;2023-05-02T02:49:47;100311.28;;;2.88;49.22
44351;BME280;62766;62.622;17.912;2023-05-02T02:52:27;100307.93;;;2.93;49.08
44351;BME280;62766;62.622;17.912;2023-05-02T02:55:05;100307.05;;;2.83;49.06
44351;BME280;62766;62.622;17.912;2023-05-02T02:57:39;100310.12;;;2.86;48.98
44351;BME280;62766;62.622;17.912;2023-05-02T03:00:15;100308.79;;;3.00;48.94
44351;BME280;62766;62.622;17.912;2023-05-02T03:02:45;100308.50;;;3.03;48.50
44351;BME280;62766;62.622;17.912;2023-05-02T03:05:14;100309.83;;;2.99;48.45
44351;BME280;62766;62.622;17.912;2023-05-02T03:07:44;100309.65;;;3.03;48.62
44351;BME280;62766;62.622;17.912;2023-05-02T03:10:13;100308.54;;;3.02;48.72
44351;BME280;62766;62.622;17.912;2023-05-02T03:12:41;100306.50;;;2.97;48.83
44351;BME280;62766;62.622;17.912;2023-05-02T03:15:21;100309.22;;;2.84;48.98
44351;BME280;62766;62.622;17.912;2023-05-02T03:17:52;100308.51;;;2.99;49.05
44351;BME280;62766;62.622;17.912;2023-05-02T03:20:20;100306.40;;;2.92;48.98
44351;BME280;62766;62.622;17.912;2023-05-02T03:22:49;100312.74;;;2.97;48.86
44351;BME280;62766;62.622;17.912;2023-05-02T03:25:17;100310.19;;;3.09;48.76
44351;BME280;62766;62.622;17.912;2023-05-02T03:27:46;100310.25;;;3.18;48.78
44351;BME280;62766;62.622;17.912;2023-05-02T03:30:14;100309.72;;;3.15;48.76
44351;BME280;62766;62.622;17.912;2023-05-02T03:32:42;100309.07;;;3.12;48.87
44351;BME280;62766;62.622;17.912;2023-05-02T03:35:12;100309.16;;;3.14;49.18
44351;BME280;62766;62.622;17.912;2023-05-02T03:37:40;100307.53;;;3.12;49.20
44351;BME280;62766;62.622;17.912;2023-05-02T03:40:09;100308.70;;;3.17;49.13
44351;BME280;62766;62.622;17.912;2023-05-02T03:42:41;100309.64;;;3.23;49.25
44351;BME280;62766;62.622;17.912;2023-05-02T03:45:10;100314.83;;;3.23;49.33
44351;BME280;62766;62.622;17.912;2023-05-02T03:47:39;100312.83;;;3.26;49.12
44351;BME280;62766;62.622;17.912;2023-05-02T03:50:09;100314.28;;;3.32;48.91
44351;BME280;62766;62.622;17.912;2023-05-02T03:52:37;100313.33;;;3.36;48.72
44351;BME280;62766;62.622;17.912;2023-05-02T03:55:07;100314.98;;;3.35;48.64
44351;BME280;62766;62.622;17.912;2023-05-02T03:57:36;100316.07;;;3.43;48.33
44351;BME280;62766;62.622;17.912;2023-05-02T04:03:23;100319.36;;;3.47;48.19
44351;BME280;62766;62.622;17.912;2023-05-02T04:05:52;100322.56;;;3.52;47.90
44351;BME280;62766;62.622;17.912;2023-05-02T04:08:21;100323.01;;;3.48;47.70
44351;BME280;62766;62.622;17.912;2023-05-02T04:10:50;100320.70;;;3.49;47.85
44351;BME280;62766;62.622;17.912;2023-05-02T04:13:18;100320.76;;;3.58;48.00
44351;BME280;62766;62.622;17.912;2023-05-02T04:15:46;100320.78;;;3.56;48.04
44351;BME280;62766;62.622;17.912;2023-05-02T04:18:14;100324.36;;;3.66;48.26
44351;BME280;62766;62.622;17.912;2023-05-02T04:20:43;100325.74;;;3.75;48.16
44351;BME280;62766;62.622;17.912;2023-05-02T04:23:11;100328.88;;;3.80;48.17
44351;BME280;62766;62.622;17.912;2023-05-02T04:25:40;100330.73;;;3.89;47.88
44351;BME280;62766;62.622;17.912;2023-05-02T04:28:08;100332.92;;;4.03;47.96
44351;BME280;62766;62.622;17.912;2023-05-02T04:30:37;100331.25;;;4.03;47.64
44351;BME280;62766;62.622;17.912;2023-05-02T04:33:05;100333.58;;;4.04;47.37
44351;BME280;62766;62.622;17.912;2023-05-02T04:35:33;100336.08;;;4.06;47.30
44351;BME280;62766;62.622;17.912;2023-05-02T04:38:02;100334.49;;;4.22;47.17
44351;BME280;62766;62.622;17.912;2023-05-02T04:40:31;100336.76;;;4.26;46.89
44351;BME280;62766;62.622;17.912;2023-05-02T04:43:00;100334.30;;;4.35;46.78
44351;BME280;62766;62.622;17.912;2023-05-02T04:45:29;100338.08;;;4.32;46.92
44351;BME280;62766;62.622;17.912;2023-05-02T04:47:57;100333.17;;;4.27;46.59
44351;BME280;62766;62.622;17.912;2023-05-02T04:50:26;100333.17;;;4.38;46.60
44351;BME280;62766;62.622;17.912;2023-05-02T04:52:54;100334.11;;;4.38;46.43
44351;BME280;62766;62.622;17.912;2023-05-02T04:55:23;100338.63;;;4.41;46.31
44351;BME280;62766;62.622;17.912;2023-05-02T04:57:53;100339.53;;;4.29;46.28
44351;BME280;62766;62.622;17.912;2023-05-02T05:00:22;100338.74;;;4.25;46.39
44351;BME280;62766;62.622;17.912;2023-05-02T05:02:51;100342.30;;;4.31;46.25
44351;BME280;62766;62.622;17.912;2023-05-02T05:05:19;100341.92;;;4.32;46.35
44351;BME280;62766;62.622;17.912;2023-05-02T05:07:48;100342.65;;;4.44;46.31
44351;BME280;62766;62.622;17.912;2023-05-02T05:10:16;100346.99;;;4.45;46.52
44351;BME280;62766;62.622;17.912;2023-05-02T05:12:45;100345.08;;;4.51;46.53
44351;BME280;62766;62.622;17.912;2023-05-02T05:15:13;100348.01;;;4.51;46.11
44351;BME280;62766;62.622;17.912;2023-05-02T05:17:41;100351.01;;;4.73;46.16
44351;BME280;62766;62.622;17.912;2023-05-02T05:20:10;100350.59;;;4.81;45.94
44351;BME280;62766;62.622;17.912;2023-05-02T05:22:39;100349.91;;;4.72;46.00
44351;BME280;62766;62.622;17.912;2023-05-02T05:25:08;100349.37;;;4.77;45.95
44351;BME280;62766;62.622;17.912;2023-05-02T05:27:37;100353.19;;;4.89;45.97
44351;BME280;62766;62.622;17.912;2023-05-02T05:30:06;100353.27;;;4.86;45.77
44351;BME280;62766;62.622;17.912;2023-05-02T05:32:35;100351.74;;;4.76;45.54
44351;BME280;62766;62.622;17.912;2023-05-02T05:35:04;100352.53;;;4.83;45.79
44351;BME280;62766;62.622;17.912;2023-05-02T05:37:32;100347.53;;;4.87;45.67
44351;BME280;62766;62.622;17.912;2023-05-02T05:40:01;100347.08;;;4.82;45.55
44351;BME280;62766;62.622;17.912;2023-05-02T05:42:29;100349.43;;;4.89;45.95
44351;BME280;62766;62.622;17.912;2023-05-02T05:44:57;100351.65;;;4.76;46.08
44351;BME280;62766;62.622;17.912;2023-05-02T05:47:26;100352.30;;;4.90;46.12
44351;BME280;62766;62.622;17.912;2023-05-02T05:49:54;100351.78;;;4.99;45.74
44351;BME280;62766;62.622;17.912;2023-05-02T05:52:23;100352.04;;;5.11;46.12
44351;BME280;62766;62.622;17.912;2023-05-02T05:54:53;100353.15;;;5.09;45.94
44351;BME280;62766;62.622;17.912;2023-05-02T05:57:22;100350.29;;;5.21;45.65
44351;BME280;62766;62.622;17.912;2023-05-02T05:59:51;100354.52;;;5.36;45.99
44351;BME280;62766;62.622;17.912;2023-05-02T06:02:19;100353.77;;;5.35;45.37
44351;BME280;62766;62.622;17.912;2023-05-02T06:04:48;100361.29;;;5.25;45.66
44351;BME280;62766;62.622;17.912;2023-05-02T06:07:16;100362.81;;;5.23;45.55
44351;BME280;62766;62.622;17.912;2023-05-02T06:09:45;100361.46;;;5.13;45.68
44351;BME280;62766;62.622;17.912;2023-05-02T06:12:13;100360.54;;;5.24;45.93
44351;BME280;62766;62.622;17.912;2023-05-02T06:14:41;100364.59;;;5.27;45.58
44351;BME280;62766;62.622;17.912;2023-05-02T06:17:10;100365.07;;;5.39;45.80
44351;BME280;62766;62.622;17.912;2023-05-02T06:19:38;100362.50;;;5.37;45.80
44351;BME280;62766;62.622;17.912;2023-05-02T06:22:07;100367.95;;;5.57;46.26
44351;BME280;62766;62.622;17.912;2023-05-02T06:24:35;100367.49;;;5.78;45.71
44351;BME280;62766;62.622;17.912;2023-05-02T06:27:03;100367.54;;;5.83;45.20
44351;BME280;62766;62.622;17.912;2023-05-02T06:29:32;100370.63;;;5.87;45.47
44351;BME280;62766;62.622;17.912;2023-05-02T06:32:00;100373.12;;;6.05;45.09
44351;BME280;62766;62.622;17.912;2023-05-02T06:34:30;100373.62;;;5.99;45.05
44351;BME280;62766;62.622;17.912;2023-05-02T06:36:59;100370.92;;;6.19;44.54
44351;BME280;62766;62.622;17.912;2023-05-02T06:39:27;100369.24;;;6.47;44.20
44351;BME280;62766;62.622;17.912;2023-05-02T06:41:56;100371.22;;;6.59;44.29
44351;BME280;62766;62.622;17.912;2023-05-02T06:44:25;100376.80;;;6.68;43.70
44351;BME280;62766;62.622;17.912;2023-05-02T06:46:52;100380.09;;;6.70;43.65
44351;BME280;62766;62.622;17.912;2023-05-02T06:49:21;100382.54;;;6.82;43.06
44351;BME280;62766;62.622;17.912;2023-05-02T06:51:49;100381.94;;;7.11;43.15
44351;BME280;62766;62.622;17.912;2023-05-02T06:54:17;100382.38;;;7.25;43.13
44351;BME280;62766;62.622;17.912;2023-05-02T06:56:46;100381.47;;;7.44;42.68
44351;BME280;62766;62.622;17.912;2023-05-02T06:59:14;100379.83;;;7.60;42.10
44351;BME280;62766;62.622;17.912;2023-05-02T07:01:42;100379.50;;;7.86;41.99
44351;BME280;62766;62.622;17.912;2023-05-02T07:04:11;100374.76;;;7.89;41.79
44351;BME280;62766;62.622;17.912;2023-05-02T07:06:39;100381.57;;;7.93;41.15
44351;BME280;62766;62.622;17.912;2023-05-02T07:09:07;100380.68;;;8.09;41.11
44351;BME280;62766;62.622;17.912;2023-05-02T07:11:36;100379.77;;;8.31;41.16
44351;BME280;62766;62.622;17.912;2023-05-02T07:14:04;100379.80;;;8.23;40.91
44351;BME280;62766;62.622;17.912;2023-05-02T07:16:32;100382.22;;;8.56;40.30
44351;BME280;62766;62.622;17.912;2023-05-02T07:19:01;100383.17;;;8.60;40.07
44351;BME280;62766;62.622;17.912;2023-05-02T07:21:29;100387.72;;;8.47;39.65
44351;BME280;62766;62.622;17.912;2023-05-02T07:23:57;100390.63;;;8.73;39.54
44351;BME280;62766;62.622;17.912;2023-05-02T07:26:26;100385.48;;;8.69;39.21
44351;BME280;62766;62.622;17.912;2023-05-02T07:28:56;100384.71;;;8.72;39.03
44351;BME280;62766;62.622;17.912;2023-05-02T07:31:25;100385.58;;;8.77;39.08
44351;BME280;62766;62.622;17.912;2023-05-02T07:33:52;100386.37;;;8.84;38.96
44351;BME280;62766;62.622;17.912;2023-05-02T07:36:22;100387.82;;;8.86;38.53
44351;BME280;62766;62.622;17.912;2023-05-02T07:38:49;100386.50;;;8.89;38.30
44351;BME280;62766;62.622;17.912;2023-05-02T07:41:18;100393.58;;;9.01;38.39
44351;BME280;62766;62.622;17.912;2023-05-02T07:43:51;100392.39;;;8.99;38.81
44351;BME280;62766;62.622;17.912;2023-05-02T07:46:20;100390.42;;;9.05;38.45
44351;BME280;62766;62.622;17.912;2023-05-02T07:48:48;100392.21;;;9.09;38.03
44351;BME280;62766;62.622;17.912;2023-05-02T07:51:16;100391.57;;;9.16;37.56
44351;BME280;62766;62.622;17.912;2023-05-02T07:53:44;100394.00;;;9.18;37.68
44351;BME280;62766;62.622;17.912;2023-05-02T07:56:13;100393.14;;;9.39;37.42
44351;BME280;62766;62.622;17.912;2023-05-02T07:58:41;100395.89;;;9.39;37.21
44351;BME280;62766;62.622;17.912;2023-05-02T08:01:09;100398.29;;;9.42;37.14
44351;BME280;62766;62.622;17.912;2023-05-02T08:03:38;100398.34;;;9.51;37.25
44351;BME280;62766;62.622;17.912;2023-05-02T08:06:06;100402.16;;;9.50;36.91
44351;BME280;62766;62.622;17.912;2023-05-02T08:08:35;100405.17;;;9.47;36.63
44351;BME280;62766;62.622;17.912;2023-05-02T08:11:03;100403.56;;;9.58;37.08
44351;BME280;62766;62.622;17.912;2023-05-02T08:13:31;100402.22;;;9.93;36.32
44351;BME280;62766;62.622;17.912;2023-05-02T08:15:59;100406.62;;;9.93;35.95
44351;BME280;62766;62.622;17.912;2023-05-02T08:18:28;100410.59;;;10.01;35.64
44351;BME280;62766;62.622;17.912;2023-05-02T08:20:56;100409.29;;;9.93;35.69
44351;BME280;62766;62.622;17.912;2023-05-02T08:23:25;100417.77;;;9.68;35.20
44351;BME280;62766;62.622;17.912;2023-05-02T08:25:53;100418.48;;;9.37;35.35
44351;BME280;62766;62.622;17.912;2023-05-02T08:28:21;100419.97;;;9.26;35.39
44351;BME280;62766;62.622;17.912;2023-05-02T08:30:49;100427.86;;;9.02;36.18
44351;BME280;62766;62.622;17.912;2023-05-02T08:33:17;100424.77;;;8.83;36.36
44351;BME280;62766;62.622;17.912;2023-05-02T08:35:46;100430.50;;;8.69;36.41
44351;BME280;62766;62.622;17.912;2023-05-02T08:38:14;100433.93;;;8.87;36.94
44351;BME280;62766;62.622;17.912;2023-05-02T08:40:42;100435.89;;;8.89;36.90
44351;BME280;62766;62.622;17.912;2023-05-02T08:43:11;100436.35;;;9.19;35.85
44351;BME280;62766;62.622;17.912;2023-05-02T08:45:40;100436.46;;;9.42;36.39
44351;BME280;62766;62.622;17.912;2023-05-02T08:48:10;100436.14;;;9.57;35.37
44351;BME280;62766;62.622;17.912;2023-05-02T08:50:41;100440.83;;;9.46;35.33
44351;BME280;62766;62.622;17.912;2023-05-02T08:53:11;100438.53;;;9.67;36.24
44351;BME280;62766;62.622;17.912;2023-05-02T08:55:41;100437.47;;;9.95;35.53
44351;BME280;62766;62.622;17.912;2023-05-02T08:58:10;100437.13;;;10.06;35.36
44351;BME280;62766;62.622;17.912;2023-05-02T09:00:39;100444.74;;;10.09;35.27
44351;BME280;62766;62.622;17.912;2023-05-02T09:03:16;100440.86;;;10.39;35.64
44351;BME280;62766;62.622;17.912;2023-05-02T09:05:52;100440.87;;;10.44;34.45
44351;BME280;62766;62.622;17.912;2023-05-02T09:08:22;100443.67;;;10.47;34.33
44351;BME280;62766;62.622;17.912;2023-05-02T09:10:51;100438.38;;;10.66;34.38
44351;BME280;62766;62.622;17.912;2023-05-02T09:13:29;100442.31;;;10.95;33.60
44351;BME280;62766;62.622;17.912;2023-05-02T09:15:58;100447.17;;;10.78;33.16
44351;BME280;62766;62.622;17.912;2023-05-02T09:18:28;100448.09;;;10.75;32.92
44351;BME280;62766;62.622;17.912;2023-05-02T09:20:58;100444.94;;;10.87;32.00
44351;BME280;62766;62.622;17.912;2023-05-02T09:23:36;100447.13;;;11.09;31.18
44351;BME280;62766;62.622;17.912;2023-05-02T09:26:16;100450.29;;;11.41;29.87
44351;BME280;62766;62.622;17.912;2023-05-02T09:28:46;100448.64;;;11.86;29.34
44351;BME280;62766;62.622;17.912;2023-05-02T09:31:17;100452.05;;;12.10;29.10
44351;BME280;62766;62.622;17.912;2023-05-02T09:33:47;100454.84;;;11.88;29.62
44351;BME280;62766;62.622;17.912;2023-05-02T09:36:18;100460.44;;;11.78;30.24
44351;BME280;62766;62.622;17.912;2023-05-02T09:38:49;100461.05;;;11.61;30.40
44351;BME280;62766;62.622;17.912;2023-05-02T09:41:18;100461.63;;;11.49;30.55
44351;BME280;62766;62.622;17.912;2023-05-02T09:43:54;100462.46;;;11.54;31.13
44351;BME280;62766;62.622;17.912;2023-05-02T09:46:24;100461.71;;;11.82;30.69
44351;BME280;62766;62.622;17.912;2023-05-02T09:48:54;100459.86;;;12.27;30.47
44351;BME280;62766;62.622;17.912;2023-05-02T09:51:24;100466.27;;;12.15;29.41
44351;BME280;62766;62.622;17.912;2023-05-02T09:53:53;100472.82;;;12.01;28.39
44351;BME280;62766;62.622;17.912;2023-05-02T09:56:22;100468.56;;;12.03;28.85
44351;BME280;62766;62.622;17.912;2023-05-02T09:58:50;100472.61;;;12.46;29.19
44351;BME280;62766;62.622;17.912;2023-05-02T10:03:39;100486.20;;;11.94;30.48
44351;BME280;62766;62.622;17.912;2023-05-02T10:06:08;100486.31;;;11.55;30.86
44351;BME280;62766;62.622;17.912;2023-05-02T10:08:38;100488.36;;;11.39;31.14
44351;BME280;62766;62.622;17.912;2023-05-02T10:11:08;100488.32;;;11.17;31.12
44351;BME280;62766;62.622;17.912;2023-05-02T10:13:42;100488.42;;;11.10;31.32
44351;BME280;62766;62.622;17.912;2023-05-02T10:16:11;100490.45;;;11.17;31.47
44351;BME280;62766;62.622;17.912;2023-05-02T10:18:44;100495.26;;;11.28;31.29
44351;BME280;62766;62.622;17.912;2023-05-02T10:21:16;100515.44;;;11.48;32.00
44351;BME280;62766;62.622;17.912;2023-05-02T10:23:47;100523.73;;;10.91;33.60
44351;BME280;62766;62.622;17.912;2023-05-02T10:26:17;100523.32;;;10.36;35.17
44351;BME280;62766;62.622;17.912;2023-05-02T10:28:45;100528.74;;;10.02;35.98
44351;BME280;62766;62.622;17.912;2023-05-02T10:31:18;100533.55;;;9.89;35.25
44351;BME280;62766;62.622;17.912;2023-05-02T10:33:49;100540.55;;;9.57;34.88
44351;BME280;62766;62.622;17.912;2023-05-02T10:36:20;100535.79;;;9.29;35.20
44351;BME280;62766;62.622;17.912;2023-05-02T10:38:50;100544.94;;;9.01;34.95
44351;BME280;62766;62.622;17.912;2023-05-02T10:41:20;100556.02;;;8.87;35.92
44351;BME280;62766;62.622;17.912;2023-05-02T10:43:51;100567.23;;;8.72;39.69
44351;BME280;62766;62.622;17.912;2023-05-02T10:46:28;100572.16;;;8.40;41.29
44351;BME280;62766;62.622;17.912;2023-05-02T10:49:00;100568.70;;;8.25;43.23
44351;BME280;62766;62.622;17.912;2023-05-02T10:51:28;100571.65;;;8.17;44.26
44351;BME280;62766;62.622;17.912;2023-05-02T10:54:30;100569.37;;;8.26;42.99
44351;BME280;62766;62.622;17.912;2023-05-02T10:57:02;100578.24;;;8.32;44.18
44351;BME280;62766;62.622;17.912;2023-05-02T10:59:33;100576.33;;;8.36;44.24
44351;BME280;62766;62.622;17.912;2023-05-02T11:02:01;100573.49;;;8.53;43.61
44351;BME280;62766;62.622;17.912;2023-05-02T11:05:04;100574.85;;;9.06;44.74
44351;BME280;62766;62.622;17.912;2023-05-02T11:07:33;100573.83;;;9.55;42.99
44351;BME280;62766;62.622;17.912;2023-05-02T11:10:35;100570.43;;;9.91;41.09
44351;BME280;62766;62.622;17.912;2023-05-02T11:13:04;100567.70;;;10.24;39.45
44351;BME280;62766;62.622;17.912;2023-05-02T11:16:05;100566.46;;;10.41;38.75
44351;BME280;62766;62.622;17.912;2023-05-02T11:18:57;100570.46;;;10.62;38.12
44351;BME280;62766;62.622;17.912;2023-05-02T11:21:27;100567.42;;;10.95;35.85
44351;BME280;62766;62.622;17.912;2023-05-02T11:25:02;100566.03;;;11.04;35.32
44351;BME280;62766;62.622;17.912;2023-05-02T11:27:39;100566.63;;;11.34;34.17
44351;BME280;62766;62.622;17.912;2023-05-02T11:30:09;100565.09;;;11.45;33.00
44351;BME280;62766;62.622;17.912;2023-05-02T11:33:13;100568.90;;;11.16;33.65
44351;BME280;62766;62.622;17.912;2023-05-02T11:35:43;100565.53;;;11.63;33.31
44351;BME280;62766;62.622;17.912;2023-05-02T11:38:14;100569.59;;;11.91;32.81
44351;BME280;62766;62.622;17.912;2023-05-02T11:41:00;100568.67;;;12.07;32.44
44351;BME280;62766;62.622;17.912;2023-05-02T11:43:29;100564.37;;;12.37;30.72
44351;BME280;62766;62.622;17.912;2023-05-02T11:45:58;100571.27;;;12.54;31.04
44351;BME280;62766;62.622;17.912;2023-05-02T11:48:29;100574.98;;;12.63;30.50
44351;BME280;62766;62.622;17.912;2023-05-02T11:50:59;100572.74;;;12.92;30.46
44351;BME280;62766;62.622;17.912;2023-05-02T11:53:28;100569.90;;;13.34;30.41
44351;BME280;62766;62.622;17.912;2023-05-02T11:55:58;100574.93;;;13.23;28.95
44351;BME280;62766;62.622;17.912;2023-05-02T11:58:27;100586.81;;;12.63;29.45
44351;BME280;62766;62.622;17.912;2023-05-02T12:00:56;100590.63;;;12.27;30.29
44351;BME280;62766;62.622;17.912;2023-05-02T12:03:27;100595.90;;;11.95;29.84
44351;BME280;62766;62.622;17.912;2023-05-02T12:05:57;100597.23;;;11.66;30.83
44351;BME280;62766;62.622;17.912;2023-05-02T12:08:26;100606.06;;;11.49;32.45
44351;BME280;62766;62.622;17.912;2023-05-02T12:10:56;100613.49;;;11.32;32.98
44351;BME280;62766;62.622;17.912;2023-05-02T12:13:25;100609.19;;;10.98;34.20
44351;BME280;62766;62.622;17.912;2023-05-02T12:15:54;100619.36;;;10.97;34.82
44351;BME280;62766;62.622;17.912;2023-05-02T12:18:25;100622.54;;;11.37;34.35
44351;BME280;62766;62.622;17.912;2023-05-02T12:20:54;100618.45;;;11.87;33.69
44351;BME280;62766;62.622;17.912;2023-05-02T12:23:24;100630.26;;;12.28;33.42
44351;BME280;62766;62.622;17.912;2023-05-02T12:25:52;100634.78;;;12.41;31.14
44351;BME280;62766;62.622;17.912;2023-05-02T12:28:20;100641.10;;;12.17;31.68
44351;BME280;62766;62.622;17.912;2023-05-02T12:30:49;100648.94;;;12.32;32.03
44351;BME280;62766;62.622;17.912;2023-05-02T12:33:18;100654.98;;;12.50;31.72
44351;BME280;62766;62.622;17.912;2023-05-02T12:35:47;100658.56;;;12.64;31.23
44351;BME280;62766;62.622;17.912;2023-05-02T12:38:19;100668.32;;;12.62;30.93
44351;BME280;62766;62.622;17.912;2023-05-02T12:40:50;100679.31;;;12.30;32.19
44351;BME280;62766;62.622;17.912;2023-05-02T12:43:19;100699.42;;;11.94;33.29
44351;BME280;62766;62.622;17.912;2023-05-02T12:45:48;100701.29;;;11.79;34.08
44351;BME280;62766;62.622;17.912;2023-05-02T12:48:19;100702.14;;;11.50;34.37
44351;BME280;62766;62.622;17.912;2023-05-02T12:50:48;100718.18;;;11.18;34.90
44351;BME280;62766;62.622;17.912;2023-05-02T12:53:36;100734.33;;;11.10;35.18
44351;BME280;62766;62.622;17.912;2023-05-02T12:56:05;100735.50;;;10.76;35.62
44351;BME280;62766;62.622;17.912;2023-05-02T12:58:40;100741.13;;;10.59;37.15
44351;BME280;62766;62.622;17.912;2023-05-02T13:01:11;100749.29;;;10.16;38.57
44351;BME280;62766;62.622;17.912;2023-05-02T13:03:40;100758.16;;;9.77;39.22
44351;BME280;62766;62.622;17.912;2023-05-02T13:06:10;100762.05;;;9.36;40.12
44351;BME280;62766;62.622;17.912;2023-05-02T13:08:39;100771.57;;;9.01;41.61
44351;BME280;62766;62.622;17.912;2023-05-02T13:11:08;100755.97;;;8.63;42.92
44351;BME280;62766;62.622;17.912;2023-05-02T13:13:37;100747.43;;;8.13;44.07